James Turecamo — WDC7565 — position and weather

sailwx.info

Track history (hours):
 
Tides and Currents Weather Stations Pressure Air Temp Water Temp Dewpoint Dewpoint Depression Visibility Wind Speed Wind Dir Waves Ship Positions

James Turecamo

Owner: Moran Towing Corporation, New Canaan, CT. More information available from US FCC via Universal Licensing System and Coast Guard Vessel Documentation Center.

Last reported at 2015-Mar-03 12:33 UTC. Time now 2015-Mar-03 12:39 UTC.
Position N 40°38' W 074°08'.

Length 27 m; draft 4.5 m.

Type: Tug. MMSI: 367073380.

Date/timePositionNaut miles runAvg speedWind from/ knotsBaromVisibWave heightAir tempDewpointWater temp
2015-Mar-03 12:33N 40°38' W 074°08'3 2.9
2015-Mar-03 11:24N 40°42' W 074°08'2 2.7
2015-Mar-03 10:33N 40°39' W 074°09'1 0.9
2015-Mar-03 09:15N 40°38' W 074°08'0 0.0
2015-Mar-03 06:24N 40°38' W 074°08'3 3.5
2015-Mar-03 05:32N 40°41' W 074°08'5 5.1
2015-Mar-03 04:30N 40°46' W 074°05'2 1.0
2015-Mar-03 02:27N 40°48' W 074°04'2 1.9
2015-Mar-03 01:33N 40°47' W 074°05'3 2.5
2015-Mar-03 00:28N 40°44' W 074°06'2 1.8
2015-Mar-02 23:33N 40°43' W 074°07'4 4.3
2015-Mar-02 22:33N 40°39' W 074°09'1 0.8
2015-Mar-02 21:27N 40°38' W 074°08'0 0.0
2015-Mar-02 18:32N 40°38' W 074°08'0 0.0
2015-Mar-02 17:27N 40°38' W 074°08'0 0.0
2015-Mar-02 16:29N 40°38' W 074°08'0 0.0
2015-Mar-02 15:31N 40°38' W 074°08'1 1.4
2015-Mar-02 14:31N 40°39' W 074°06'1 1.4
2015-Mar-02 13:30N 40°38' W 074°08'0 0.0
2015-Mar-02 12:33N 40°38' W 074°08'2 2.5
2015-Mar-02 11:33N 40°41' W 074°09'2 1.9
2015-Mar-02 10:33N 40°39' W 074°09'1 1.1
2015-Mar-02 09:33N 40°38' W 074°08'0 0.0
2015-Mar-02 08:33N 40°38' W 074°08'0 0.0
2015-Mar-02 07:33N 40°38' W 074°08'0 0.0
2015-Mar-02 06:33N 40°38' W 074°08'0 0.0
2015-Mar-02 05:33N 40°38' W 074°08'0 0.0
2015-Mar-02 04:33N 40°38' W 074°08'0 0.0
2015-Mar-02 03:33N 40°38' W 074°08'0 0.0
2015-Mar-02 02:29N 40°38' W 074°08'2 2.1
2015-Mar-02 01:33N 40°39' W 074°05'5 4.6
2015-Mar-02 00:33N 40°35' W 074°02'0 0.0
2015-Mar-01 23:28N 40°35' W 074°02'3 0.6
2015-Mar-01 19:05N 40°33' W 074°02'510.1
2015-Mar-01 18:33N 40°38' W 074°03'3 3.3
2015-Mar-01 17:33N 40°38' W 074°08'0 0.0
2015-Mar-01 16:33N 40°38' W 074°08'2 2.0
2015-Mar-01 15:33N 40°39' W 074°05'2 1.9
2015-Mar-01 14:29N 40°38' W 074°08'6 6.5
2015-Mar-01 13:33N 40°42' W 074°01'8 7.7
2015-Mar-01 12:31N 40°48' W 073°54'0 0.1
2015-Mar-01 11:32N 40°48' W 073°54'0 0.2
2015-Mar-01 10:33N 40°48' W 073°54'6 5.5
2015-Mar-01 09:34N 40°43' W 073°58'9 4.0
2015-Mar-01 07:20N 40°38' W 074°08'0 0.0
2015-Mar-01 06:08N 40°38' W 074°08'0 0.0
2015-Mar-01 05:23N 40°38' W 074°08'0 0.0
2015-Mar-01 04:33N 40°38' W 074°08'0 0.0
2015-Mar-01 03:32N 40°38' W 074°08'0 0.0
2015-Feb-28 23:27N 40°38' W 074°08'4 4.3
2015-Feb-28 22:33N 40°37' W 074°03'3 2.8
2015-Feb-28 21:22N 40°39' W 074°07'2 2.6
2015-Feb-28 20:25N 40°39' W 074°04'3 0.7
2015-Feb-28 15:33N 40°38' W 074°08'2 2.5
2015-Feb-28 14:33N 40°39' W 074°05'2 2.4
2015-Feb-28 13:30N 40°38' W 074°08'0 0.0
2015-Feb-28 11:26N 40°38' W 074°08'0 0.0
2015-Feb-28 10:31N 40°38' W 074°08'3 3.3
2015-Feb-28 09:32N 40°42' W 074°08'3 3.1
2015-Feb-28 08:33N 40°39' W 074°07'1 0.6
2015-Feb-28 07:33N 40°39' W 074°06'0 0.0
2015-Feb-28 06:33N 40°39' W 074°06'3 2.9
2015-Feb-28 05:33N 40°41' W 074°08'0 0.4
2015-Feb-28 04:33N 40°42' W 074°08'0 0.0
2015-Feb-28 03:33N 40°42' W 074°08'3 2.9
2015-Feb-28 02:32N 40°39' W 074°07'2 2.0
2015-Feb-28 01:33N 40°40' W 074°04'1 1.5
2015-Feb-28 00:33N 40°39' W 074°03'5 2.6
2015-Feb-27 22:32N 40°38' W 074°10'3 2.8
2015-Feb-27 21:33N 40°41' W 074°08'0 0.3
2015-Feb-27 20:33N 40°41' W 074°09'2 2.0
2015-Feb-27 19:24N 40°39' W 074°07'0 0.0
2015-Feb-27 18:18N 40°39' W 074°07'0 0.0
2015-Feb-27 17:29N 40°39' W 074°07'2 1.8
2015-Feb-27 16:33N 40°39' W 074°09'2 1.7
2015-Feb-27 15:33N 40°39' W 074°07'3 2.7
2015-Feb-27 14:33N 40°39' W 074°10'4 4.2
2015-Feb-27 13:33N 40°39' W 074°05'2 2.1
2015-Feb-27 12:25N 40°38' W 074°08'0 0.0
2015-Feb-27 11:29N 40°38' W 074°08'0 0.0
2015-Feb-27 06:25N 40°38' W 074°08'0 0.0
2015-Feb-27 03:06N 40°38' W 074°08'0 0.0
2015-Feb-27 02:31N 40°38' W 074°08'1 1.2
2015-Feb-27 01:18N 40°39' W 074°06'0 0.2
2015-Feb-27 00:31N 40°39' W 074°06'0 0.0
2015-Feb-26 23:33N 40°39' W 074°06'0 0.2
2015-Feb-26 22:27N 40°39' W 074°05'1 0.7
2015-Feb-26 20:31N 40°40' W 074°04'3 0.6
2015-Feb-26 15:28N 40°38' W 074°08'0 0.0
2015-Feb-26 14:32N 40°38' W 074°08'0 0.0
2015-Feb-26 13:32N 40°38' W 074°08'3 3.1
2015-Feb-26 12:33N 40°40' W 074°04'2 1.5
2015-Feb-26 11:07N 40°38' W 074°04'4 5.1
2015-Feb-26 10:24N 40°39' W 074°08'0 0.2
2015-Feb-26 08:24N 40°38' W 074°08'0 0.0
2015-Feb-26 07:24N 40°38' W 074°08'0 0.0
2015-Feb-26 05:10N 40°38' W 074°08'0 0.0
2015-Feb-26 04:32N 40°38' W 074°08'0 0.0
2015-Feb-26 03:33N 40°38' W 074°08'0 0.0
2015-Feb-26 02:29N 40°38' W 074°08'0 0.0
2015-Feb-26 01:23N 40°38' W 074°08'0 0.0
2015-Feb-26 00:30N 40°38' W 074°08'2 2.2
2015-Feb-25 23:28N 40°41' W 074°08'1 1.5
2015-Feb-25 22:32N 40°39' W 074°09'2 1.3
2015-Feb-25 21:06N 40°41' W 074°08'3 1.0
2015-Feb-25 18:19N 40°39' W 074°08'2 2.8
2015-Feb-25 17:26N 40°41' W 074°08'0 0.5
2015-Feb-25 16:28N 40°41' W 074°08'4 1.3
2015-Feb-25 13:32N 40°38' W 074°04'2 2.0
2015-Feb-25 12:29N 40°39' W 074°07'1 0.8
2015-Feb-25 11:25N 40°38' W 074°08'0 0.1
2015-Feb-25 10:26N 40°38' W 074°08'0 0.0
2015-Feb-25 09:32N 40°38' W 074°08'0 0.0
2015-Feb-25 08:25N 40°38' W 074°08'2 2.3
2015-Feb-25 07:33N 40°39' W 074°05'0 0.0
2015-Feb-25 06:25N 40°39' W 074°05'1 0.8
2015-Feb-25 05:33N 40°39' W 074°04'1 0.8
2015-Feb-25 04:33N 40°40' W 074°04'1 0.7
2015-Feb-25 03:33N 40°40' W 074°05'3 2.5
2015-Feb-25 02:33N 40°38' W 074°03'4 3.5
2015-Feb-25 01:33N 40°38' W 074°08'0 0.0
2015-Feb-25 00:33N 40°38' W 074°08'2 2.3
2015-Feb-24 23:31N 40°41' W 074°08'2 2.0
2015-Feb-24 22:20N 40°38' W 074°08'0 0.0
2015-Feb-24 20:32N 40°38' W 074°08'0 0.0
2015-Feb-24 19:16N 40°38' W 074°08'0 0.0
2015-Feb-24 18:32N 40°38' W 074°08'1 1.5
2015-Feb-24 17:33N 40°40' W 074°09'0 0.3
2015-Feb-24 16:31N 40°40' W 074°08'2 1.7
2015-Feb-24 15:33N 40°38' W 074°08'0 0.0
2015-Feb-24 14:32N 40°38' W 074°08'0 0.0
2015-Feb-24 13:32N 40°38' W 074°08'0 0.0
2015-Feb-24 12:21N 40°38' W 074°08'1 1.6
2015-Feb-24 11:34N 40°39' W 074°06'2 2.0
2015-Feb-24 10:33N 40°40' W 074°08'2 1.2
2015-Feb-24 09:13N 40°42' W 074°08'2 2.5
2015-Feb-24 08:33N 40°40' W 074°08'2 1.7
2015-Feb-24 07:32N 40°38' W 074°08'0 0.0
2015-Feb-24 06:32N 40°38' W 074°08'0 0.0
2015-Feb-24 05:32N 40°38' W 074°08'0 0.2
2015-Feb-24 04:33N 40°39' W 074°08'3 3.2
2015-Feb-24 03:28N 40°42' W 074°09'3 3.4
2015-Feb-24 02:28N 40°38' W 074°08'0 0.0
2015-Feb-24 01:33N 40°38' W 074°08'0 0.0
2015-Feb-24 00:33N 40°38' W 074°08'0 0.0
2015-Feb-23 23:33N 40°38' W 074°08'0 0.0
2015-Feb-23 22:32N 40°38' W 074°08'0 0.0
2015-Feb-23 21:31N 40°38' W 074°08'0 0.0
2015-Feb-23 20:14N 40°38' W 074°08'0 0.0
2015-Feb-23 17:06N 40°38' W 074°08'1 0.9
2015-Feb-23 16:10N 40°39' W 074°07'1 1.4
2015-Feb-23 15:33N 40°38' W 074°08'0 0.0
2015-Feb-23 13:18N 40°38' W 074°08'1 1.5
2015-Feb-23 12:33N 40°39' W 074°06'0 0.4
2015-Feb-23 11:33N 40°39' W 074°06'2 2.2
2015-Feb-23 10:33N 40°38' W 074°03'2 1.9
2015-Feb-23 09:33N 40°40' W 074°04'0 0.0
2015-Feb-23 08:33N 40°40' W 074°04'0 0.0
2015-Feb-23 07:33N 40°40' W 074°04'0 0.5
2015-Feb-23 06:33N 40°40' W 074°05'2 1.5
2015-Feb-23 05:33N 40°39' W 074°03'1 1.0
2015-Feb-23 04:33N 40°39' W 074°05'3 3.1
2015-Feb-23 03:33N 40°41' W 074°01'5 4.6
2015-Feb-23 02:33N 40°39' W 074°06'1 1.1
2015-Feb-23 01:33N 40°38' W 074°08'0 0.0
2015-Feb-23 00:33N 40°38' W 074°08'0 0.0
2015-Feb-22 23:33N 40°38' W 074°08'0 0.0
2015-Feb-22 22:33N 40°38' W 074°08'0 0.0
2015-Feb-22 21:32N 40°38' W 074°08'0 0.0
2015-Feb-22 20:33N 40°38' W 074°08'0 0.0
2015-Feb-22 19:30N 40°38' W 074°08'2 2.1
2015-Feb-22 18:33N 40°39' W 074°05'2 2.0
2015-Feb-22 17:33N 40°38' W 074°08'2 1.5
2015-Feb-22 16:27N 40°39' W 074°10'0 0.0
2015-Feb-22 15:33N 40°39' W 074°10'0 0.1
2015-Feb-22 13:22N 40°39' W 074°10'2 1.9
2015-Feb-22 12:32N 40°38' W 074°08'0 0.0
2015-Feb-22 11:33N 40°38' W 074°08'0 0.0
2015-Feb-22 10:33N 40°38' W 074°08'0 0.0
2015-Feb-22 09:18N 40°38' W 074°08'0 0.0
2015-Feb-22 08:33N 40°38' W 074°08'0 0.0
2015-Feb-22 07:33N 40°38' W 074°08'8 8.1
2015-Feb-22 06:34N 40°43' W 073°59'3 3.2
2015-Feb-22 05:33N 40°46' W 073°57'5 4.8
2015-Feb-22 04:33N 40°42' W 074°00'4 4.2
2015-Feb-22 03:32N 40°39' W 074°05'2 1.1
2015-Feb-22 01:27N 40°38' W 074°08'0 0.0
2015-Feb-22 00:17N 40°38' W 074°08'0 0.0
2015-Feb-21 22:27N 40°38' W 074°08'0 0.0
2015-Feb-21 21:21N 40°38' W 074°08'0 0.0
2015-Feb-21 16:25N 40°38' W 074°08'1 1.7
2015-Feb-21 15:33N 40°39' W 074°06'1 0.9
2015-Feb-21 14:34N 40°39' W 074°07'1 1.0
2015-Feb-21 13:33N 40°39' W 074°08'  
Track history (hours):
 
Tides and Currents Weather Stations Pressure Air Temp Water Temp Dewpoint Dewpoint Depression Visibility Wind Speed Wind Dir Waves Ship Positions

James Turecamo

Owner: Moran Towing Corporation, New Canaan, CT. More information available from US FCC via Universal Licensing System and Coast Guard Vessel Documentation Center.

Last reported at 2015-Mar-03 12:33 UTC. Time now 2015-Mar-03 12:39 UTC.
Position N 40°38' W 074°08'.

Length 27 m; draft 4.5 m.

Type: Tug. MMSI: 367073380.

Date/timePositionNaut miles runAvg speedWind from/ knotsBaromVisibWave heightAir tempDewpointWater temp
2015-Mar-03 12:33N 40°38' W 074°08'3 2.9
2015-Mar-03 11:24N 40°42' W 074°08'2 2.7
2015-Mar-03 10:33N 40°39' W 074°09'1 0.9
2015-Mar-03 09:15N 40°38' W 074°08'0 0.0
2015-Mar-03 06:24N 40°38' W 074°08'3 3.5
2015-Mar-03 05:32N 40°41' W 074°08'5 5.1
2015-Mar-03 04:30N 40°46' W 074°05'2 1.0
2015-Mar-03 02:27N 40°48' W 074°04'2 1.9
2015-Mar-03 01:33N 40°47' W 074°05'3 2.5
2015-Mar-03 00:28N 40°44' W 074°06'2 1.8
2015-Mar-02 23:33N 40°43' W 074°07'4 4.3
2015-Mar-02 22:33N 40°39' W 074°09'1 0.8
2015-Mar-02 21:27N 40°38' W 074°08'0 0.0
2015-Mar-02 18:32N 40°38' W 074°08'0 0.0
2015-Mar-02 17:27N 40°38' W 074°08'0 0.0
2015-Mar-02 16:29N 40°38' W 074°08'0 0.0
2015-Mar-02 15:31N 40°38' W 074°08'1 1.4
2015-Mar-02 14:31N 40°39' W 074°06'1 1.4
2015-Mar-02 13:30N 40°38' W 074°08'0 0.0
2015-Mar-02 12:33N 40°38' W 074°08'2 2.5
2015-Mar-02 11:33N 40°41' W 074°09'2 1.9
2015-Mar-02 10:33N 40°39' W 074°09'1 1.1
2015-Mar-02 09:33N 40°38' W 074°08'0 0.0
2015-Mar-02 08:33N 40°38' W 074°08'0 0.0
2015-Mar-02 07:33N 40°38' W 074°08'0 0.0
2015-Mar-02 06:33N 40°38' W 074°08'0 0.0
2015-Mar-02 05:33N 40°38' W 074°08'0 0.0
2015-Mar-02 04:33N 40°38' W 074°08'0 0.0
2015-Mar-02 03:33N 40°38' W 074°08'0 0.0
2015-Mar-02 02:29N 40°38' W 074°08'2 2.1
2015-Mar-02 01:33N 40°39' W 074°05'5 4.6
2015-Mar-02 00:33N 40°35' W 074°02'0 0.0
2015-Mar-01 23:28N 40°35' W 074°02'3 0.6
2015-Mar-01 19:05N 40°33' W 074°02'510.1
2015-Mar-01 18:33N 40°38' W 074°03'3 3.3
2015-Mar-01 17:33N 40°38' W 074°08'0 0.0
2015-Mar-01 16:33N 40°38' W 074°08'2 2.0
2015-Mar-01 15:33N 40°39' W 074°05'2 1.9
2015-Mar-01 14:29N 40°38' W 074°08'6 6.5
2015-Mar-01 13:33N 40°42' W 074°01'8 7.7
2015-Mar-01 12:31N 40°48' W 073°54'0 0.1
2015-Mar-01 11:32N 40°48' W 073°54'0 0.2
2015-Mar-01 10:33N 40°48' W 073°54'6 5.5
2015-Mar-01 09:34N 40°43' W 073°58'9 4.0
2015-Mar-01 07:20N 40°38' W 074°08'0 0.0
2015-Mar-01 06:08N 40°38' W 074°08'0 0.0
2015-Mar-01 05:23N 40°38' W 074°08'0 0.0
2015-Mar-01 04:33N 40°38' W 074°08'0 0.0
2015-Mar-01 03:32N 40°38' W 074°08'0 0.0
2015-Feb-28 23:27N 40°38' W 074°08'4 4.3
2015-Feb-28 22:33N 40°37' W 074°03'3 2.8
2015-Feb-28 21:22N 40°39' W 074°07'2 2.6
2015-Feb-28 20:25N 40°39' W 074°04'3 0.7
2015-Feb-28 15:33N 40°38' W 074°08'2 2.5
2015-Feb-28 14:33N 40°39' W 074°05'2 2.4
2015-Feb-28 13:30N 40°38' W 074°08'0 0.0
2015-Feb-28 11:26N 40°38' W 074°08'0 0.0
2015-Feb-28 10:31N 40°38' W 074°08'3 3.3
2015-Feb-28 09:32N 40°42' W 074°08'3 3.1
2015-Feb-28 08:33N 40°39' W 074°07'1 0.6
2015-Feb-28 07:33N 40°39' W 074°06'0 0.0
2015-Feb-28 06:33N 40°39' W 074°06'3 2.9
2015-Feb-28 05:33N 40°41' W 074°08'0 0.4
2015-Feb-28 04:33N 40°42' W 074°08'0 0.0
2015-Feb-28 03:33N 40°42' W 074°08'3 2.9
2015-Feb-28 02:32N 40°39' W 074°07'2 2.0
2015-Feb-28 01:33N 40°40' W 074°04'1 1.5
2015-Feb-28 00:33N 40°39' W 074°03'5 2.6
2015-Feb-27 22:32N 40°38' W 074°10'3 2.8
2015-Feb-27 21:33N 40°41' W 074°08'0 0.3
2015-Feb-27 20:33N 40°41' W 074°09'2 2.0
2015-Feb-27 19:24N 40°39' W 074°07'0 0.0
2015-Feb-27 18:18N 40°39' W 074°07'0 0.0
2015-Feb-27 17:29N 40°39' W 074°07'2 1.8
2015-Feb-27 16:33N 40°39' W 074°09'2 1.7
2015-Feb-27 15:33N 40°39' W 074°07'3 2.7
2015-Feb-27 14:33N 40°39' W 074°10'4 4.2
2015-Feb-27 13:33N 40°39' W 074°05'2 2.1
2015-Feb-27 12:25N 40°38' W 074°08'0 0.0
2015-Feb-27 11:29N 40°38' W 074°08'0 0.0
2015-Feb-27 06:25N 40°38' W 074°08'0 0.0
2015-Feb-27 03:06N 40°38' W 074°08'0 0.0
2015-Feb-27 02:31N 40°38' W 074°08'1 1.2
2015-Feb-27 01:18N 40°39' W 074°06'0 0.2
2015-Feb-27 00:31N 40°39' W 074°06'0 0.0
2015-Feb-26 23:33N 40°39' W 074°06'0 0.2
2015-Feb-26 22:27N 40°39' W 074°05'1 0.7
2015-Feb-26 20:31N 40°40' W 074°04'3 0.6
2015-Feb-26 15:28N 40°38' W 074°08'0 0.0
2015-Feb-26 14:32N 40°38' W 074°08'0 0.0
2015-Feb-26 13:32N 40°38' W 074°08'3 3.1
2015-Feb-26 12:33N 40°40' W 074°04'2 1.5
2015-Feb-26 11:07N 40°38' W 074°04'4 5.1
2015-Feb-26 10:24N 40°39' W 074°08'0 0.2
2015-Feb-26 08:24N 40°38' W 074°08'0 0.0
2015-Feb-26 07:24N 40°38' W 074°08'0 0.0
2015-Feb-26 05:10N 40°38' W 074°08'0 0.0
2015-Feb-26 04:32N 40°38' W 074°08'0 0.0
2015-Feb-26 03:33N 40°38' W 074°08'0 0.0
2015-Feb-26 02:29N 40°38' W 074°08'0 0.0
2015-Feb-26 01:23N 40°38' W 074°08'0 0.0
2015-Feb-26 00:30N 40°38' W 074°08'2 2.2
2015-Feb-25 23:28N 40°41' W 074°08'1 1.5
2015-Feb-25 22:32N 40°39' W 074°09'2 1.3
2015-Feb-25 21:06N 40°41' W 074°08'3 1.0
2015-Feb-25 18:19N 40°39' W 074°08'2 2.8
2015-Feb-25 17:26N 40°41' W 074°08'0 0.5
2015-Feb-25 16:28N 40°41' W 074°08'4 1.3
2015-Feb-25 13:32N 40°38' W 074°04'2 2.0
2015-Feb-25 12:29N 40°39' W 074°07'1 0.8
2015-Feb-25 11:25N 40°38' W 074°08'0 0.1
2015-Feb-25 10:26N 40°38' W 074°08'0 0.0
2015-Feb-25 09:32N 40°38' W 074°08'0 0.0
2015-Feb-25 08:25N 40°38' W 074°08'2 2.3
2015-Feb-25 07:33N 40°39' W 074°05'0 0.0
2015-Feb-25 06:25N 40°39' W 074°05'1 0.8
2015-Feb-25 05:33N 40°39' W 074°04'1 0.8
2015-Feb-25 04:33N 40°40' W 074°04'1 0.7
2015-Feb-25 03:33N 40°40' W 074°05'3 2.5
2015-Feb-25 02:33N 40°38' W 074°03'4 3.5
2015-Feb-25 01:33N 40°38' W 074°08'0 0.0
2015-Feb-25 00:33N 40°38' W 074°08'2 2.3
2015-Feb-24 23:31N 40°41' W 074°08'2 2.0
2015-Feb-24 22:20N 40°38' W 074°08'0 0.0
2015-Feb-24 20:32N 40°38' W 074°08'0 0.0
2015-Feb-24 19:16N 40°38' W 074°08'0 0.0
2015-Feb-24 18:32N 40°38' W 074°08'1 1.5
2015-Feb-24 17:33N 40°40' W 074°09'0 0.3
2015-Feb-24 16:31N 40°40' W 074°08'2 1.7
2015-Feb-24 15:33N 40°38' W 074°08'0 0.0
2015-Feb-24 14:32N 40°38' W 074°08'0 0.0
2015-Feb-24 13:32N 40°38' W 074°08'0 0.0
2015-Feb-24 12:21N 40°38' W 074°08'1 1.6
2015-Feb-24 11:34N 40°39' W 074°06'2 2.0
2015-Feb-24 10:33N 40°40' W 074°08'2 1.2
2015-Feb-24 09:13N 40°42' W 074°08'2 2.5
2015-Feb-24 08:33N 40°40' W 074°08'2 1.7
2015-Feb-24 07:32N 40°38' W 074°08'0 0.0
2015-Feb-24 06:32N 40°38' W 074°08'0 0.0
2015-Feb-24 05:32N 40°38' W 074°08'0 0.2
2015-Feb-24 04:33N 40°39' W 074°08'3 3.2
2015-Feb-24 03:28N 40°42' W 074°09'3 3.4
2015-Feb-24 02:28N 40°38' W 074°08'0 0.0
2015-Feb-24 01:33N 40°38' W 074°08'0 0.0
2015-Feb-24 00:33N 40°38' W 074°08'0 0.0
2015-Feb-23 23:33N 40°38' W 074°08'0 0.0
2015-Feb-23 22:32N 40°38' W 074°08'0 0.0
2015-Feb-23 21:31N 40°38' W 074°08'0 0.0
2015-Feb-23 20:14N 40°38' W 074°08'0 0.0
2015-Feb-23 17:06N 40°38' W 074°08'1 0.9
2015-Feb-23 16:10N 40°39' W 074°07'1 1.4
2015-Feb-23 15:33N 40°38' W 074°08'0 0.0
2015-Feb-23 13:18N 40°38' W 074°08'1 1.5
2015-Feb-23 12:33N 40°39' W 074°06'0 0.4
2015-Feb-23 11:33N 40°39' W 074°06'2 2.2
2015-Feb-23 10:33N 40°38' W 074°03'2 1.9
2015-Feb-23 09:33N 40°40' W 074°04'0 0.0
2015-Feb-23 08:33N 40°40' W 074°04'0 0.0
2015-Feb-23 07:33N 40°40' W 074°04'0 0.5
2015-Feb-23 06:33N 40°40' W 074°05'2 1.5
2015-Feb-23 05:33N 40°39' W 074°03'1 1.0
2015-Feb-23 04:33N 40°39' W 074°05'3 3.1
2015-Feb-23 03:33N 40°41' W 074°01'5 4.6
2015-Feb-23 02:33N 40°39' W 074°06'1 1.1
2015-Feb-23 01:33N 40°38' W 074°08'0 0.0
2015-Feb-23 00:33N 40°38' W 074°08'0 0.0
2015-Feb-22 23:33N 40°38' W 074°08'0 0.0
2015-Feb-22 22:33N 40°38' W 074°08'0 0.0
2015-Feb-22 21:32N 40°38' W 074°08'0 0.0
2015-Feb-22 20:33N 40°38' W 074°08'0 0.0
2015-Feb-22 19:30N 40°38' W 074°08'2 2.1
2015-Feb-22 18:33N 40°39' W 074°05'2 2.0
2015-Feb-22 17:33N 40°38' W 074°08'2 1.5
2015-Feb-22 16:27N 40°39' W 074°10'0 0.0
2015-Feb-22 15:33N 40°39' W 074°10'0 0.1
2015-Feb-22 13:22N 40°39' W 074°10'2 1.9
2015-Feb-22 12:32N 40°38' W 074°08'0 0.0
2015-Feb-22 11:33N 40°38' W 074°08'0 0.0
2015-Feb-22 10:33N 40°38' W 074°08'0 0.0
2015-Feb-22 09:18N 40°38' W 074°08'0 0.0
2015-Feb-22 08:33N 40°38' W 074°08'0 0.0
2015-Feb-22 07:33N 40°38' W 074°08'8 8.1
2015-Feb-22 06:34N 40°43' W 073°59'3 3.2
2015-Feb-22 05:33N 40°46' W 073°57'5 4.8
2015-Feb-22 04:33N 40°42' W 074°00'4 4.2
2015-Feb-22 03:32N 40°39' W 074°05'2 1.1
2015-Feb-22 01:27N 40°38' W 074°08'0 0.0
2015-Feb-22 00:17N 40°38' W 074°08'0 0.0
2015-Feb-21 22:27N 40°38' W 074°08'0 0.0
2015-Feb-21 21:21N 40°38' W 074°08'0 0.0
2015-Feb-21 16:25N 40°38' W 074°08'1 1.7
2015-Feb-21 15:33N 40°39' W 074°06'1 0.9
2015-Feb-21 14:34N 40°39' W 074°07'1 1.0
2015-Feb-21 13:33N 40°39' W 074°08'  

Dump ship's entire track history